Time,TemperatureF,DewpointF,PressureIn,WindDirection,WindDirectionDegrees,WindSpeedMPH,WindSpeedGustMPH,Humidity,HourlyPrecipIn,Conditions,Clouds,dailyrainin,SoftwareType,DateUTC
2013-01-26 00:01:00,36.6,34.0,29.95,NNW,338,1.0,2.0,89,0.00,,,0.00,weatherlink.com 1.10,2013-01-26 08:01:00,
2013-01-26 00:16:00,36.7,34.0,29.95,NNW,338,2.0,3.0,90,0.00,,,0.00,weatherlink.com 1.10,2013-01-26 08:16:00,
2013-01-26 00:31:00,36.2,34.0,29.95,NNW,338,0.0,2.0,91,0.00,,,0.00,weatherlink.com 1.10,2013-01-26 08:31:00,
2013-01-26 00:46:00,35.7,34.0,29.95,NNW,345,0.0,3.0,92,0.00,,,0.00,weatherlink.com 1.10,2013-01-26 08:46:00,
2013-01-26 01:01:00,35.5,34.0,29.94,NNW,345,1.0,3.0,93,0.00,,,0.00,weatherlink.com 1.10,2013-01-26 09:01:00,
2013-01-26 01:16:00,35.0,33.0,29.94,NNW,345,1.0,3.0,93,0.00,,,0.00,weatherlink.com 1.10,2013-01-26 09:16:00,
2013-01-26 01:31:00,34.9,33.0,29.94,NNW,345,0.0,3.0,93,0.00,,,0.00,weatherlink.com 1.10,2013-01-26 09:31:00,
2013-01-26 01:46:00,34.5,33.0,29.94,NNW,346,2.0,2.0,93,0.00,,,0.00,weatherlink.com 1.10,2013-01-26 09:46:00,
2013-01-26 02:01:00,34.2,32.0,29.94,NNW,346,1.0,2.0,93,0.00,,,0.00,weatherlink.com 1.10,2013-01-26 10:01:00,
2013-01-26 02:17:00,33.4,32.0,29.94,NNW,346,0.0,3.0,93,0.00,,,0.00,weatherlink.com 1.10,2013-01-26 10:17:00,
2013-01-26 02:32:00,32.8,31.0,29.94,NNW,346,1.0,3.0,93,0.00,,,0.00,weatherlink.com 1.10,2013-01-26 10:32:00,
2013-01-26 02:47:00,32.9,31.0,29.94,NNW,346,1.0,5.0,94,0.00,,,0.00,weatherlink.com 1.10,2013-01-26 10:47:00,
2013-01-26 03:02:00,35.1,31.0,29.94,NNW,347,0.0,6.0,85,0.00,,,0.00,weatherlink.com 1.10,2013-01-26 11:02:00,
2013-01-26 03:17:00,33.6,31.0,29.94,North,349,1.0,4.0,89,0.00,,,0.00,weatherlink.com 1.10,2013-01-26 11:17:00,
2013-01-26 03:32:00,33.3,30.0,29.94,North,351,0.0,3.0,86,0.00,,,0.00,weatherlink.com 1.10,2013-01-26 11:32:00,
2013-01-26 03:47:00,34.3,28.0,29.94,South,187,3.0,5.0,78,0.00,,,0.00,weatherlink.com 1.10,2013-01-26 11:47:00,
2013-01-26 04:02:00,34.2,27.0,29.94,SSE,148,7.0,11.0,74,0.00,,,0.00,weatherlink.com 1.10,2013-01-26 12:02:00,
2013-01-26 04:17:00,34.4,24.0,29.95,SSE,158,3.0,12.0,67,0.01,,,0.01,weatherlink.com 1.10,2013-01-26 12:17:00,
2013-01-26 04:32:00,33.9,24.0,29.95,SSE,167,2.0,9.0,68,0.01,,,0.01,weatherlink.com 1.10,2013-01-26 12:32:00,
2013-01-26 04:47:00,33.2,24.0,29.95,South,169,2.0,7.0,69,0.01,,,0.01,weatherlink.com 1.10,2013-01-26 12:47:00,
2013-01-26 05:02:00,33.1,24.0,29.95,South,170,3.0,6.0,70,0.01,,,0.01,weatherlink.com 1.10,2013-01-26 13:02:00,
2013-01-26 05:17:00,32.8,24.0,29.95,South,176,5.0,8.0,71,0.00,,,0.01,weatherlink.com 1.10,2013-01-26 13:17:00,
2013-01-26 05:32:00,32.8,24.0,29.95,South,178,3.0,11.0,71,0.00,,,0.01,weatherlink.com 1.10,2013-01-26 13:32:00,
2013-01-26 05:47:00,32.3,24.0,29.95,South,179,5.0,10.0,72,0.00,,,0.01,weatherlink.com 1.10,2013-01-26 13:47:00,
2013-01-26 06:02:00,32.2,24.0,29.95,South,185,8.0,9.0,72,0.00,,,0.01,weatherlink.com 1.10,2013-01-26 14:02:00,
2013-01-26 06:17:00,31.8,24.0,29.95,SSE,162,5.0,8.0,72,0.00,,,0.01,weatherlink.com 1.10,2013-01-26 14:17:00,
2013-01-26 06:32:00,31.3,24.0,29.95,South,170,3.0,8.0,73,0.00,,,0.01,weatherlink.com 1.10,2013-01-26 14:32:00,
2013-01-26 06:47:00,31.3,24.0,29.95,South,176,3.0,9.0,73,0.00,,,0.01,weatherlink.com 1.10,2013-01-26 14:47:00,
2013-01-26 07:02:00,30.3,23.0,29.95,South,176,2.0,5.0,75,0.00,,,0.01,weatherlink.com 1.10,2013-01-26 15:02:00,
2013-01-26 07:17:00,30.1,23.0,29.96,SE,127,3.0,5.0,76,0.00,,,0.01,weatherlink.com 1.10,2013-01-26 15:17:00,
2013-01-26 07:32:00,31.2,24.0,29.96,South,171,7.0,10.0,75,0.00,,,0.01,weatherlink.com 1.10,2013-01-26 15:32:00,
2013-01-26 07:47:00,32.0,25.0,29.96,South,178,1.0,6.0,74,0.00,,,0.01,weatherlink.com 1.10,2013-01-26 15:47:00,
2013-01-26 08:02:00,31.0,25.0,29.95,SSE,153,2.0,6.0,78,0.00,,,0.01,weatherlink.com 1.10,2013-01-26 16:02:00,
2013-01-26 08:17:00,31.0,25.0,29.95,SSE,152,0.0,6.0,78,0.00,,,0.01,weatherlink.com 1.10,2013-01-26 16:17:00,
2013-01-26 08:32:00,32.1,26.0,29.96,SSE,152,2.0,5.0,78,0.00,,,0.01,weatherlink.com 1.10,2013-01-26 16:32:00,
2013-01-26 08:47:00,31.6,25.0,29.96,SSE,150,2.0,5.0,78,0.00,,,0.01,weatherlink.com 1.10,2013-01-26 16:47:00,
2013-01-26 09:02:00,32.7,26.0,29.96,ENE,76,0.0,7.0,77,0.00,,,0.01,weatherlink.com 1.10,2013-01-26 17:02:00,
2013-01-26 09:17:00,32.7,26.0,29.97,ENE,76,1.0,4.0,77,0.00,,,0.01,weatherlink.com 1.10,2013-01-26 17:17:00,
2013-01-26 09:32:00,34.1,27.0,29.97,ENE,76,2.0,3.0,76,0.00,,,0.01,weatherlink.com 1.10,2013-01-26 17:32:00,
2013-01-26 09:47:00,35.5,28.0,29.97,South,174,2.0,4.0,74,0.00,,,0.01,weatherlink.com 1.10,2013-01-26 17:47:00,
2013-01-26 10:02:00,36.2,28.0,29.97,SE,142,2.0,4.0,73,0.00,,,0.01,weatherlink.com 1.10,2013-01-26 18:02:00,
2013-01-26 10:17:00,37.4,29.0,29.97,SE,142,1.0,3.0,72,0.00,,,0.01,weatherlink.com 1.10,2013-01-26 18:17:00,
2013-01-26 10:32:00,38.6,29.0,29.97,SE,141,2.0,4.0,68,0.00,,,0.01,weatherlink.com 1.10,2013-01-26 18:32:00,
2013-01-26 10:47:00,39.5,29.0,29.97,SE,141,1.0,3.0,66,0.00,,,0.01,weatherlink.com 1.10,2013-01-26 18:47:00,
2013-01-26 11:02:00,38.9,27.0,29.97,NE,36,1.0,6.0,63,0.00,,,0.01,weatherlink.com 1.10,2013-01-26 19:02:00,
2013-01-26 11:18:00,39.2,26.0,29.96,North,355,5.0,7.0,60,0.00,,,0.01,weatherlink.com 1.10,2013-01-26 19:18:00,
2013-01-26 11:33:00,38.1,27.0,29.96,NNW,345,3.0,10.0,64,0.00,,,0.01,weatherlink.com 1.10,2013-01-26 19:33:00,
2013-01-26 11:48:00,37.7,27.0,29.96,NW,321,3.0,8.0,66,0.00,,,0.01,weatherlink.com 1.10,2013-01-26 19:48:00,
2013-01-26 12:03:00,37.0,27.0,29.96,North,5,2.0,8.0,67,0.00,,,0.01,weatherlink.com 1.10,2013-01-26 20:03:00,
2013-01-26 12:18:00,38.5,27.0,29.96,NNE,28,1.0,3.0,63,0.00,,,0.01,weatherlink.com 1.10,2013-01-26 20:18:00,
2013-01-26 12:33:00,38.8,24.0,29.95,West,268,3.0,6.0,56,0.00,,,0.01,weatherlink.com 1.10,2013-01-26 20:33:00,
2013-01-26 12:48:00,39.3,22.0,29.94,WSW,248,7.0,12.0,50,0.00,,,0.01,weatherlink.com 1.10,2013-01-26 20:48:00,
2013-01-26 13:03:00,39.5,22.0,29.93,SW,235,6.0,15.0,49,0.00,,,0.01,weatherlink.com 1.10,2013-01-26 21:03:00,
2013-01-26 13:18:00,39.9,22.0,29.93,SW,223,4.0,12.0,49,0.00,,,0.01,weatherlink.com 1.10,2013-01-26 21:18:00,
2013-01-26 13:33:00,39.6,24.0,29.93,West,280,5.0,14.0,54,0.00,,,0.01,weatherlink.com 1.10,2013-01-26 21:33:00,
2013-01-26 13:48:00,38.2,24.0,29.93,NW,309,6.0,16.0,58,0.00,,,0.01,weatherlink.com 1.10,2013-01-26 21:48:00,
2013-01-26 14:03:00,38.3,26.0,29.94,WNW,299,2.0,9.0,61,0.00,,,0.01,weatherlink.com 1.10,2013-01-26 22:03:00,
2013-01-26 14:18:00,38.1,25.0,29.94,WNW,298,1.0,9.0,60,0.00,,,0.01,weatherlink.com 1.10,2013-01-26 22:18:00,
2013-01-26 14:33:00,38.2,24.0,29.95,NNW,334,4.0,7.0,57,0.00,,,0.01,weatherlink.com 1.10,2013-01-26 22:33:00,
2013-01-26 14:48:00,38.1,23.0,29.94,NNW,334,3.0,4.0,54,0.00,,,0.01,weatherlink.com 1.10,2013-01-26 22:48:00,
2013-01-26 15:03:00,38.9,23.0,29.95,NNW,334,1.0,3.0,53,0.00,,,0.01,weatherlink.com 1.10,2013-01-26 23:03:00,
2013-01-26 15:18:00,38.8,23.0,29.95,NNW,334,3.0,4.0,53,0.00,,,0.01,weatherlink.com 1.10,2013-01-26 23:18:00,
2013-01-26 15:33:00,38.5,23.0,29.95,NNW,333,2.0,3.0,54,0.00,,,0.01,weatherlink.com 1.10,2013-01-26 23:33:00,
2013-01-26 15:48:00,37.8,23.0,29.95,NNW,334,3.0,4.0,56,0.00,,,0.01,weatherlink.com 1.10,2013-01-26 23:48:00,
2013-01-26 16:03:00,36.8,24.0,29.95,NW,306,4.0,6.0,59,0.00,,,0.01,weatherlink.com 1.10,2013-01-27 00:03:00,
2013-01-26 16:18:00,36.0,24.0,29.95,WNW,289,2.0,9.0,61,0.00,,,0.01,weatherlink.com 1.10,2013-01-27 00:18:00,
2013-01-26 16:33:00,35.5,24.0,29.95,WNW,289,0.0,4.0,62,0.00,,,0.01,weatherlink.com 1.10,2013-01-27 00:33:00,
2013-01-26 16:48:00,35.1,24.0,29.96,WNW,289,0.0,2.0,63,0.00,,,0.01,weatherlink.com 1.10,2013-01-27 00:48:00,
2013-01-26 17:03:00,34.9,24.0,29.96,WNW,289,0.0,0.0,65,0.00,,,0.01,weatherlink.com 1.10,2013-01-27 01:03:00,
2013-01-26 17:18:00,33.4,23.0,29.97,WNW,289,0.0,1.0,67,0.00,,,0.01,weatherlink.com 1.10,2013-01-27 01:18:00,
2013-01-26 17:33:00,32.7,24.0,29.98,WNW,289,1.0,2.0,69,0.00,,,0.01,weatherlink.com 1.10,2013-01-27 01:33:00,
2013-01-26 17:48:00,31.4,23.0,29.98,WNW,289,1.0,3.0,72,0.00,,,0.01,weatherlink.com 1.10,2013-01-27 01:48:00,
2013-01-26 18:03:00,30.9,24.0,29.99,WNW,289,0.0,3.0,75,0.00,,,0.01,weatherlink.com 1.10,2013-01-27 02:03:00,
2013-01-26 18:18:00,30.6,24.0,29.99,WNW,289,0.0,0.0,75,0.00,,,0.01,weatherlink.com 1.10,2013-01-27 02:18:00,
2013-01-26 18:33:00,29.6,23.0,29.99,WNW,289,1.0,2.0,77,0.00,,,0.01,weatherlink.com 1.10,2013-01-27 02:33:00,
2013-01-26 18:48:00,29.0,23.0,30.00,WNW,289,0.0,1.0,79,0.00,,,0.01,weatherlink.com 1.10,2013-01-27 02:48:00,
2013-01-26 19:03:00,28.4,23.0,30.00,WNW,289,0.0,2.0,79,0.00,,,0.01,weatherlink.com 1.10,2013-01-27 03:03:00,
2013-01-26 19:18:00,28.9,23.0,30.01,SW,215,5.0,9.0,78,0.00,,,0.01,weatherlink.com 1.10,2013-01-27 03:18:00,
2013-01-26 19:33:00,31.3,23.0,30.01,SSW,210,0.0,5.0,72,0.00,,,0.01,weatherlink.com 1.10,2013-01-27 03:33:00,
2013-01-26 19:48:00,30.2,23.0,30.02,SSW,211,0.0,3.0,74,0.00,,,0.01,weatherlink.com 1.10,2013-01-27 03:48:00,
2013-01-26 20:03:00,28.9,22.0,30.02,SSW,210,0.0,2.0,76,0.00,,,0.01,weatherlink.com 1.10,2013-01-27 04:03:00,
2013-01-26 20:18:00,27.7,22.0,30.03,SSW,211,0.0,0.0,79,0.00,,,0.01,weatherlink.com 1.10,2013-01-27 04:18:00,
2013-01-26 20:33:00,26.6,22.0,30.03,SSW,210,2.0,3.0,81,0.00,,,0.01,weatherlink.com 1.10,2013-01-27 04:33:00,
2013-01-26 20:48:00,26.7,22.0,30.03,SSW,211,1.0,3.0,81,0.00,,,0.01,weatherlink.com 1.10,2013-01-27 04:48:00,
2013-01-26 21:03:00,28.0,21.0,30.04,SSW,211,1.0,4.0,76,0.00,,,0.01,weatherlink.com 1.10,2013-01-27 05:03:00,
2013-01-26 21:18:00,28.5,22.0,30.04,SSW,210,0.0,3.0,75,0.00,,,0.01,weatherlink.com 1.10,2013-01-27 05:18:00,
2013-01-26 21:33:00,28.4,21.0,30.04,SSW,211,2.0,2.0,75,0.00,,,0.01,weatherlink.com 1.10,2013-01-27 05:33:00,
2013-01-26 21:48:00,28.0,21.0,30.04,SSW,210,0.0,1.0,74,0.00,,,0.01,weatherlink.com 1.10,2013-01-27 05:48:00,
2013-01-26 22:03:00,28.4,21.0,30.05,SSW,210,1.0,4.0,73,0.00,,,0.01,weatherlink.com 1.10,2013-01-27 06:03:00,
2013-01-26 22:18:00,28.9,21.0,30.05,South,184,3.0,5.0,73,0.00,,,0.01,weatherlink.com 1.10,2013-01-27 06:18:00,
2013-01-26 22:33:00,28.8,21.0,30.06,SSW,201,1.0,5.0,73,0.00,,,0.01,weatherlink.com 1.10,2013-01-27 06:33:00,
2013-01-26 22:48:00,28.4,21.0,30.06,WSW,248,1.0,5.0,73,0.00,,,0.01,weatherlink.com 1.10,2013-01-27 06:48:00,
2013-01-26 23:03:00,27.1,20.0,30.06,WSW,248,0.0,1.0,76,0.00,,,0.01,weatherlink.com 1.10,2013-01-27 07:03:00,
2013-01-26 23:18:00,25.9,21.0,30.07,WSW,248,0.0,0.0,80,0.00,,,0.01,weatherlink.com 1.10,2013-01-27 07:18:00,
2013-01-26 23:33:00,25.4,20.0,30.08,WSW,248,0.0,1.0,81,0.00,,,0.01,weatherlink.com 1.10,2013-01-27 07:33:00,
2013-01-26 23:48:00,24.8,20.0,30.08,WSW,248,0.0,1.0,82,0.00,,,0.01,weatherlink.com 1.10,2013-01-27 07:48:00,